createdAt,value
2023-04-14T00:01:50.420Z,12.30
2023-04-14T00:04:38.750Z,15.15
2023-04-14T00:07:26.510Z,12.55
2023-04-14T00:10:13.772Z,13.50
2023-04-14T00:13:02.204Z,12.18
2023-04-14T00:15:52.430Z,10.88
2023-04-14T00:18:39.744Z,14.98
2023-04-14T00:21:27.104Z,15.63
2023-04-14T00:24:14.299Z,12.77
2023-04-14T00:27:01.554Z,16.35
2023-04-14T00:29:49.529Z,10.43
2023-04-14T00:32:37.276Z,16.73
2023-04-14T00:35:24.668Z,16.65
2023-04-14T00:38:14.006Z,14.63
2023-04-14T00:41:01.217Z,15.40
2023-04-14T00:43:48.486Z,17.30
2023-04-14T00:46:36.903Z,13.18
2023-04-14T00:49:27.123Z,10.40
2023-04-14T00:52:16.878Z,11.35
2023-04-14T00:55:05.638Z,17.40
2023-04-14T00:57:57.068Z,16.95
2023-04-14T01:00:44.662Z,12.35
2023-04-14T01:03:32.175Z,10.98
2023-04-14T01:06:19.525Z,12.98
2023-04-14T01:09:07.426Z,13.43
2023-04-14T01:12:04.024Z,13.40
2023-04-14T01:15:21.324Z,11.75
2023-04-14T01:18:12.755Z,14.30
2023-04-14T01:21:08.155Z,13.77
2023-04-14T01:24:23.216Z,13.90
2023-04-14T01:27:41.054Z,12.70
2023-04-14T01:31:02.638Z,16.33
2023-04-14T01:34:03.833Z,7.25
2023-04-14T01:37:30.830Z,13.48
2023-04-14T01:40:20.959Z,12.15
2023-04-14T01:43:13.037Z,15.18
2023-04-14T01:46:10.004Z,8.40
2023-04-14T01:48:57.456Z,16.13
2023-04-14T01:51:45.918Z,15.95
2023-04-14T01:54:34.685Z,10.27
2023-04-14T01:57:26.621Z,20.83
2023-04-14T02:00:16.548Z,14.70
2023-04-14T02:03:06.380Z,14.82
2023-04-14T02:05:56.097Z,10.40
2023-04-14T02:08:44.032Z,11.65
2023-04-14T02:11:34.751Z,13.38
2023-04-14T02:14:26.654Z,10.27
2023-04-14T02:17:15.445Z,17.95
2023-04-14T02:20:02.615Z,14.10
2023-04-14T02:22:49.853Z,13.85
2023-04-14T02:25:37.824Z,10.32
2023-04-14T02:28:32.284Z,14.07
2023-04-14T02:31:25.685Z,18.63
2023-04-14T02:34:14.450Z,10.75
2023-04-14T02:37:07.329Z,18.55
2023-04-14T02:40:00.843Z,10.65
2023-04-14T02:42:56.862Z,15.82
2023-04-14T02:45:49.449Z,20.38
2023-04-14T02:51:27.585Z,18.15
2023-04-14T02:54:17.033Z,16.95
2023-04-14T02:57:04.747Z,15.85
2023-04-14T02:59:53.071Z,10.45
2023-04-14T03:02:42.164Z,13.13
2023-04-14T03:05:30.686Z,15.63
2023-04-14T03:08:21.600Z,13.40
2023-04-14T03:11:09.354Z,16.83
2023-04-14T03:13:59.815Z,18.65
2023-04-14T03:16:48.694Z,12.98
2023-04-14T03:19:36.638Z,19.83
2023-04-14T03:22:28.469Z,17.45
2023-04-14T03:25:16.033Z,13.38
2023-04-14T03:28:06.133Z,15.40
2023-04-14T03:30:57.345Z,8.27
2023-04-14T03:33:47.087Z,20.08
2023-04-14T03:36:38.774Z,23.60
2023-04-14T03:39:28.604Z,16.53
2023-04-14T03:42:16.782Z,18.83
2023-04-14T03:45:04.552Z,17.70
2023-04-14T03:47:57.906Z,14.95
2023-04-14T03:50:51.827Z,15.43
2023-04-14T03:56:31.158Z,26.67
2023-04-14T03:59:20.836Z,20.92
2023-04-14T04:02:09.681Z,19.75
2023-04-14T04:04:58.991Z,21.58
2023-04-14T04:07:49.073Z,21.27
2023-04-14T04:10:37.858Z,13.68
2023-04-14T04:13:26.569Z,28.02
2023-04-14T04:16:14.541Z,23.60
2023-04-14T04:19:06.805Z,18.20
2023-04-14T04:21:59.930Z,14.77
2023-04-14T04:27:37.217Z,21.52
2023-04-14T04:30:25.304Z,19.92
2023-04-14T04:33:14.212Z,20.73
2023-04-14T04:36:02.146Z,17.42
2023-04-14T04:38:52.187Z,18.77
2023-04-14T04:41:39.348Z,13.85
2023-04-14T04:44:28.843Z,16.52
2023-04-14T04:47:20.754Z,12.98
2023-04-14T04:50:08.299Z,14.27
2023-04-14T04:52:55.465Z,14.52
2023-04-14T04:55:45.076Z,20.67
2023-04-14T04:58:37.590Z,26.05
2023-04-14T05:04:12.623Z,23.20
2023-04-14T05:06:59.919Z,27.38
2023-04-14T05:09:49.440Z,23.27
2023-04-14T05:12:36.749Z,12.57
2023-04-14T05:15:24.036Z,18.20
2023-04-14T05:18:11.918Z,27.63
2023-04-14T05:21:07.398Z,12.50
2023-04-14T05:23:54.782Z,17.23
2023-04-14T05:26:51.932Z,14.00
2023-04-14T05:29:57.331Z,13.45
2023-04-14T05:32:53.489Z,13.48
2023-04-14T05:36:14.712Z,12.30
2023-04-14T05:39:03.354Z,17.02
2023-04-14T05:41:52.012Z,17.88
2023-04-14T05:44:47.076Z,20.17
2023-04-14T05:47:50.164Z,14.48
2023-04-14T06:03:48.841Z,11.88
2023-04-14T06:09:55.673Z,10.38
2023-04-14T06:13:03.377Z,9.35
2023-04-14T06:16:52.295Z,8.60
2023-04-14T06:19:47.062Z,6.50
2023-04-14T06:23:40.154Z,5.93
2023-04-14T06:53:56.076Z,6.50
2023-04-14T06:57:41.683Z,7.38
2023-04-14T07:06:02.780Z,5.55
2023-04-14T07:08:14.689Z,6.55
2023-04-14T07:11:26.232Z,6.95
2023-04-14T07:14:25.545Z,7.60
2023-04-14T07:17:31.253Z,9.50
2023-04-14T07:20:27.758Z,4.47
2023-04-14T07:23:44.393Z,11.10
2023-04-14T07:26:34.825Z,7.60
2023-04-14T07:33:36.508Z,7.00
2023-04-14T07:37:21.747Z,5.50
2023-04-14T07:40:30.068Z,6.32
2023-04-14T07:46:53.955Z,4.43
2023-04-14T07:58:30.304Z,5.47
2023-04-14T08:02:08.414Z,8.07
2023-04-14T08:05:33.603Z,4.93
2023-04-14T08:28:40.421Z,6.30
2023-04-14T08:32:20.586Z,2.30
2023-04-14T08:39:16.246Z,6.45
2023-04-14T08:43:40.331Z,3.42
2023-04-14T08:55:37.443Z,4.68
2023-04-14T08:58:26.672Z,4.55
2023-04-14T09:01:29.133Z,5.15
2023-04-14T09:07:50.385Z,5.68
2023-04-14T09:10:53.061Z,3.38
2023-04-14T09:52:53.812Z,5.90
2023-04-14T09:55:50.822Z,8.30
2023-04-14T09:58:43.380Z,8.02
2023-04-14T10:07:46.884Z,8.13
2023-04-14T10:10:44.324Z,3.90
2023-04-14T10:13:34.516Z,6.22
2023-04-14T10:16:23.533Z,3.70
2023-04-14T10:19:11.502Z,8.63
2023-04-14T10:22:04.276Z,3.47
2023-04-14T10:28:57.491Z,5.75
2023-04-14T10:32:13.855Z,3.55
2023-04-14T10:35:16.989Z,3.70
2023-04-14T10:38:04.824Z,4.53
2023-04-14T10:40:53.943Z,4.20
2023-04-14T10:43:44.012Z,4.93
2023-04-14T10:46:44.240Z,5.00
2023-04-14T10:49:35.692Z,4.25
2023-04-14T10:52:25.383Z,5.28
2023-04-14T10:55:15.754Z,5.43
2023-04-14T10:58:06.861Z,4.07
2023-04-14T11:00:57.301Z,5.05
2023-04-14T11:03:49.878Z,4.75
2023-04-14T11:09:42.727Z,4.50
2023-04-14T11:12:30.459Z,5.80
2023-04-14T11:15:19.267Z,4.95
2023-04-14T11:18:18.334Z,4.50
2023-04-14T11:21:33.746Z,8.65
2023-04-14T11:24:25.708Z,4.97
2023-04-14T11:27:13.418Z,3.13
2023-04-14T11:30:02.137Z,4.72
2023-04-14T11:33:09.146Z,5.07
2023-04-14T11:39:27.243Z,5.45
2023-04-14T11:42:17.902Z,5.95
2023-04-14T11:49:16.288Z,4.65
2023-04-14T11:52:26.148Z,4.28
2023-04-14T11:58:33.895Z,5.70
2023-04-14T12:01:25.301Z,3.40
2023-04-14T12:04:13.579Z,4.03
2023-04-14T12:07:02.117Z,7.60
2023-04-14T12:09:52.574Z,5.22
2023-04-14T12:12:42.929Z,3.03
2023-04-14T12:15:37.036Z,3.17
2023-04-14T12:18:24.639Z,2.72
2023-04-14T12:21:19.771Z,4.13
2023-04-14T12:24:07.188Z,2.55
2023-04-14T12:26:56.646Z,3.55
2023-04-14T12:29:44.437Z,4.85
2023-04-14T12:32:44.265Z,3.60
2023-04-14T12:35:35.760Z,4.63
2023-04-14T12:38:29.469Z,2.65
2023-04-14T12:41:27.453Z,3.40
2023-04-14T12:44:20.894Z,4.80
2023-04-14T12:47:08.492Z,3.40
2023-04-14T12:49:57.158Z,4.32
2023-04-14T12:52:47.824Z,5.20
2023-04-14T12:55:38.266Z,6.72
2023-04-14T12:58:30.120Z,4.57
2023-04-14T13:01:20.225Z,5.57
2023-04-14T13:04:08.017Z,6.35
2023-04-14T13:06:56.040Z,3.15
2023-04-14T13:09:44.460Z,5.45
2023-04-14T13:12:31.872Z,3.38
2023-04-14T13:15:59.929Z,4.57
2023-04-14T13:21:29.418Z,3.08
2023-04-14T13:24:17.310Z,3.90
2023-04-14T13:27:04.905Z,5.72
2023-04-14T13:29:55.093Z,4.22
2023-04-14T13:32:44.763Z,3.65
2023-04-14T13:35:32.570Z,4.43
2023-04-14T13:38:22.440Z,2.92
2023-04-14T13:41:15.476Z,6.93
2023-04-14T13:44:05.901Z,3.63
2023-04-14T13:46:53.663Z,3.13
2023-04-14T13:49:41.124Z,5.40
2023-04-14T13:52:28.559Z,4.68
2023-04-14T13:55:16.023Z,2.55
2023-04-14T13:58:03.647Z,8.00
2023-04-14T14:00:51.708Z,6.65
2023-04-14T14:03:50.806Z,6.10
2023-04-14T14:06:38.910Z,6.38
2023-04-14T14:09:26.222Z,2.13
2023-04-14T14:12:14.035Z,6.88
2023-04-14T14:15:19.768Z,4.55
2023-04-14T14:18:19.134Z,3.22
2023-04-14T14:21:07.508Z,3.83
2023-04-14T14:23:57.566Z,6.07
2023-04-14T14:26:45.132Z,5.18
2023-04-14T14:29:35.256Z,3.63
2023-04-14T14:32:22.878Z,3.50
2023-04-14T14:35:10.732Z,2.53
2023-04-14T14:38:08.102Z,4.65
2023-04-14T14:40:57.069Z,4.32
2023-04-14T14:43:46.387Z,4.90
2023-04-14T14:46:44.223Z,4.75
2023-04-14T14:49:56.539Z,4.20
2023-04-14T14:52:47.597Z,7.82
2023-04-14T14:55:35.907Z,6.20
2023-04-14T14:58:40.083Z,8.68
2023-04-14T15:01:32.606Z,3.97
2023-04-14T15:04:21.552Z,7.90
2023-04-14T15:07:13.897Z,5.93
2023-04-14T15:10:03.680Z,9.10
2023-04-14T15:12:51.417Z,4.07
2023-04-14T15:15:39.362Z,7.97
2023-04-14T15:22:17.416Z,6.72
2023-04-14T15:25:07.540Z,4.65
2023-04-14T15:27:56.272Z,4.28
2023-04-14T15:30:46.869Z,1.83
2023-04-14T15:34:13.603Z,8.32
2023-04-14T15:37:05.208Z,3.85
2023-04-14T15:40:13.437Z,2.05
2023-04-14T15:43:01.553Z,3.53
2023-04-14T15:45:55.480Z,7.70
2023-04-14T15:50:08.801Z,3.00
2023-04-14T15:52:26.467Z,3.88
2023-04-14T15:55:25.514Z,3.45
2023-04-14T15:58:29.029Z,3.30
2023-04-14T16:02:01.292Z,4.57
2023-04-14T16:04:42.166Z,5.40
2023-04-14T16:07:58.599Z,9.27
2023-04-14T16:11:10.453Z,3.63
2023-04-14T16:13:58.267Z,8.55
2023-04-14T16:17:07.450Z,5.88
2023-04-14T16:19:58.742Z,5.90
2023-04-14T16:22:51.721Z,6.30
2023-04-14T16:25:48.063Z,4.50
2023-04-14T16:28:45.924Z,5.20
2023-04-14T16:31:52.471Z,8.60
2023-04-14T16:34:44.533Z,6.88
2023-04-14T16:37:32.165Z,7.32
2023-04-14T16:43:25.329Z,7.88
2023-04-14T16:46:33.852Z,5.97
2023-04-14T16:49:38.653Z,5.00
2023-04-14T16:52:30.848Z,3.80
2023-04-14T16:55:20.750Z,5.13
2023-04-14T16:58:10.017Z,6.10
2023-04-14T17:01:01.088Z,4.45
2023-04-14T17:03:55.161Z,4.70
2023-04-14T17:06:47.541Z,7.10
2023-04-14T17:09:35.125Z,3.85
2023-04-14T17:16:30.238Z,6.60
2023-04-14T17:19:57.160Z,3.20
2023-04-14T17:22:56.214Z,5.05
2023-04-14T17:26:00.409Z,4.22
2023-04-14T17:29:01.216Z,8.35
2023-04-14T17:31:52.200Z,3.53
2023-04-14T17:34:43.728Z,4.35
2023-04-14T17:37:36.722Z,2.78
2023-04-14T17:40:24.046Z,7.45
2023-04-14T17:43:11.673Z,4.20
2023-04-14T17:46:24.595Z,3.72
2023-04-14T17:49:35.265Z,4.47
2023-04-14T17:52:32.341Z,6.63
2023-04-14T17:58:58.377Z,7.03
2023-04-14T18:07:37.048Z,4.40
2023-04-14T18:12:39.083Z,4.25
